Dan Fighter — OVUE2 — position and weather

sailwx.info

Track history (hours):
 
Tides and Currents Weather Stations Pressure Air Temp Water Temp Dewpoint Dewpoint Depression Visibility Wind Speed Wind Dir Waves Ship Positions

Dan Fighter

Last reported at 2016-Jul-26 17:28 UTC. Time now 2016-Jul-26 17:57 UTC.
Position N 46°01' W 003°31'.

Length 64 m; draft 3.1 m.

Type: Cargo ship. MMSI: 220386978.

Date/timePositionNaut miles runAvg speedWind from/ knotsBaromVisibWave heightAir tempDewpointWater temp
2016-Jul-26 17:28N 46°01' W 003°31'165 8.2
2016-Jul-25 21:18N 43°38' W 001°37'6 8.2
2016-Jul-25 20:33N 43°33' W 001°33'2 1.2
2016-Jul-25 18:33N 43°32' W 001°30'0 0.0
2016-Jul-25 17:33N 43°32' W 001°30'0 0.0
2016-Jul-25 16:33N 43°32' W 001°30'0 0.0
2016-Jul-25 15:33N 43°32' W 001°30'0 0.0
2016-Jul-25 14:33N 43°32' W 001°30'0 0.0
2016-Jul-25 13:33N 43°32' W 001°30'0 0.0
2016-Jul-25 12:33N 43°32' W 001°30'0 0.0
2016-Jul-25 11:33N 43°32' W 001°30'0 0.0
2016-Jul-25 10:33N 43°32' W 001°30'0 0.0
2016-Jul-25 09:33N 43°32' W 001°30'0 0.0
2016-Jul-25 08:33N 43°32' W 001°30'0 0.0
2016-Jul-25 07:33N 43°32' W 001°30'0 0.0
2016-Jul-25 06:33N 43°32' W 001°30'0 0.0
2016-Jul-25 05:33N 43°32' W 001°30'0 0.0
2016-Jul-25 04:33N 43°32' W 001°30'0 0.0
2016-Jul-25 03:33N 43°32' W 001°30'0 0.0
2016-Jul-25 02:32N 43°32' W 001°30'0 0.0
2016-Jul-25 01:33N 43°32' W 001°30'0 0.0
2016-Jul-25 00:33N 43°32' W 001°30'0 0.0
2016-Jul-24 23:28N 43°32' W 001°30'0 0.0
2016-Jul-24 22:33N 43°32' W 001°30'0 0.0
2016-Jul-24 21:34N 43°32' W 001°30'0 0.0
2016-Jul-24 20:11N 43°32' W 001°30'0 0.0
2016-Jul-24 19:20N 43°32' W 001°30'0 0.0
2016-Jul-24 18:30N 43°32' W 001°30'0 0.0
2016-Jul-24 17:24N 43°32' W 001°30'0 0.0
2016-Jul-24 16:31N 43°32' W 001°30'0 0.0
2016-Jul-24 14:07N 43°32' W 001°30'0 0.0
2016-Jul-24 12:33N 43°32' W 001°30'0 0.0
2016-Jul-24 11:33N 43°32' W 001°30'0 0.0
2016-Jul-24 10:33N 43°32' W 001°30'0 0.0
2016-Jul-24 09:33N 43°32' W 001°30'0 0.0
2016-Jul-24 08:33N 43°32' W 001°30'0 0.0
2016-Jul-24 07:33N 43°32' W 001°30'4 3.8
2016-Jul-24 06:33N 43°34' W 001°34'  
2016-Jul-21 19:26N 49°10' W 004°60'8 5.6
2016-Jul-21 18:06N 49°14' W 004°50'16 5.4
2016-Jul-21 15:10N 49°23' W 004°29'31 7.8
2016-Jul-21 11:14N 49°39' W 003°49'7 7.4
2016-Jul-21 10:17N 49°42' W 003°39'5 6.8
2016-Jul-21 09:31N 49°45' W 003°33'6 5.9
2016-Jul-21 08:33N 49°48' W 003°25'4 4.0
2016-Jul-21 07:33N 49°49' W 003°19'5 5.4
2016-Jul-21 06:33N 49°52' W 003°12'6 6.1
2016-Jul-21 05:33N 49°55' W 003°04'7 7.4
2016-Jul-21 04:33N 49°58' W 002°53'8 8.2
2016-Jul-21 03:33N 50°01' W 002°41'56 8.0
2016-Jul-20 20:32N 50°17' W 001°18'5 5.4
2016-Jul-20 19:31N 50°18' W 001°09'4 4.6
2016-Jul-20 18:33N 50°19' W 001°03'7 6.2
2016-Jul-20 17:30N 50°21' W 000°53'6 5.7
2016-Jul-20 16:29N 50°23' W 000°44'13 6.8
2016-Jul-20 14:33N 50°27' W 000°25'6 6.5
2016-Jul-20 13:33N 50°29' W 000°15'5 5.1
2016-Jul-20 12:32N 50°31' W 000°07'5 5.5
2016-Jul-20 11:33N 50°32' E 000°01'5 4.5
2016-Jul-20 10:32N 50°34' E 000°08'5 5.0
2016-Jul-20 09:33N 50°36' E 000°15'4 4.4
2016-Jul-20 08:33N 50°37' E 000°22'28 7.0
2016-Jul-20 04:33N 50°51' E 001°00'8 8.0
2016-Jul-20 03:33N 50°56' E 001°10'7 7.2
2016-Jul-20 02:33N 51°00' E 001°19'6 6.0
2016-Jul-20 01:33N 51°04' E 001°26'5 4.9
2016-Jul-20 00:33N 51°07' E 001°32'4 4.3
2016-Jul-19 23:33N 51°10' E 001°37'5 5.4
2016-Jul-19 22:33N 51°13' E 001°44'7 7.3
2016-Jul-19 21:33N 51°20' E 001°49'9 9.2
2016-Jul-19 20:33N 51°29' E 001°54'9 9.5
2016-Jul-19 19:33N 51°37' E 001°60'9 9.2
2016-Jul-19 18:33N 51°46' E 002°06'8 7.9
2016-Jul-19 17:33N 51°53' E 002°10'7 6.7
2016-Jul-19 16:27N 52°01' E 002°12'5 6.1
2016-Jul-19 15:33N 52°06' E 002°13'7 6.1
2016-Jul-19 14:25N 52°13' E 002°14'5 5.5
2016-Jul-19 13:32N 52°18' E 002°15'7 6.1
2016-Jul-19 12:27N 52°24' E 002°17'7 7.0
2016-Jul-19 11:23N 52°32' E 002°18'11 8.3
2016-Jul-19 10:07N 52°42' E 002°20'6 8.9
2016-Jul-19 09:25N 52°48' E 002°21'8 9.1
2016-Jul-19 08:33N 52°56' E 002°22'9 8.9
2016-Jul-19 07:32N 53°05' E 002°19'26 8.9
2016-Jul-19 04:33N 53°26' E 001°51'8 7.9
2016-Jul-19 03:33N 53°32' E 001°43'8 7.6
2016-Jul-19 02:33N 53°38' E 001°35'7 7.0
2016-Jul-19 01:33N 53°43' E 001°27'48 6.7
2016-Jul-18 18:22N 54°20' E 000°34'6 7.8
2016-Jul-18 17:33N 54°25' E 000°27'8 8.4
2016-Jul-18 16:33N 54°31' E 000°18'9 8.5
2016-Jul-18 15:33N 54°38' E 000°09'9 8.7
2016-Jul-18 14:33N 54°45' W 000°01'33 8.1
2016-Jul-18 10:32N 55°09' W 000°38'7 7.2
2016-Jul-18 09:33N 55°15' W 000°45'7 7.1
2016-Jul-18 08:32N 55°21' W 000°53'38 7.4
2016-Jul-18 03:23N 55°48' W 001°41'9 8.9
2016-Jul-18 02:25N 55°53' W 001°53'7 8.7
2016-Jul-18 01:33N 55°57' W 002°04'9 8.6
2016-Jul-18 00:33N 56°01' W 002°17'8 8.3
2016-Jul-17 23:33N 56°04' W 002°31'8 7.8
2016-Jul-17 22:33N 56°06' W 002°45'8 7.8
2016-Jul-17 21:33N 56°04' W 002°58'11 9.4
2016-Jul-17 20:25N 56°02' W 003°17'  
Track history (hours):
 
Tides and Currents Weather Stations Pressure Air Temp Water Temp Dewpoint Dewpoint Depression Visibility Wind Speed Wind Dir Waves Ship Positions

Dan Fighter

Last reported at 2016-Jul-26 17:28 UTC. Time now 2016-Jul-26 17:57 UTC.
Position N 46°01' W 003°31'.

Length 64 m; draft 3.1 m.

Type: Cargo ship. MMSI: 220386978.

Date/timePositionNaut miles runAvg speedWind from/ knotsBaromVisibWave heightAir tempDewpointWater temp
2016-Jul-26 17:28N 46°01' W 003°31'165 8.2
2016-Jul-25 21:18N 43°38' W 001°37'6 8.2
2016-Jul-25 20:33N 43°33' W 001°33'2 1.2
2016-Jul-25 18:33N 43°32' W 001°30'0 0.0
2016-Jul-25 17:33N 43°32' W 001°30'0 0.0
2016-Jul-25 16:33N 43°32' W 001°30'0 0.0
2016-Jul-25 15:33N 43°32' W 001°30'0 0.0
2016-Jul-25 14:33N 43°32' W 001°30'0 0.0
2016-Jul-25 13:33N 43°32' W 001°30'0 0.0
2016-Jul-25 12:33N 43°32' W 001°30'0 0.0
2016-Jul-25 11:33N 43°32' W 001°30'0 0.0
2016-Jul-25 10:33N 43°32' W 001°30'0 0.0
2016-Jul-25 09:33N 43°32' W 001°30'0 0.0
2016-Jul-25 08:33N 43°32' W 001°30'0 0.0
2016-Jul-25 07:33N 43°32' W 001°30'0 0.0
2016-Jul-25 06:33N 43°32' W 001°30'0 0.0
2016-Jul-25 05:33N 43°32' W 001°30'0 0.0
2016-Jul-25 04:33N 43°32' W 001°30'0 0.0
2016-Jul-25 03:33N 43°32' W 001°30'0 0.0
2016-Jul-25 02:32N 43°32' W 001°30'0 0.0
2016-Jul-25 01:33N 43°32' W 001°30'0 0.0
2016-Jul-25 00:33N 43°32' W 001°30'0 0.0
2016-Jul-24 23:28N 43°32' W 001°30'0 0.0
2016-Jul-24 22:33N 43°32' W 001°30'0 0.0
2016-Jul-24 21:34N 43°32' W 001°30'0 0.0
2016-Jul-24 20:11N 43°32' W 001°30'0 0.0
2016-Jul-24 19:20N 43°32' W 001°30'0 0.0
2016-Jul-24 18:30N 43°32' W 001°30'0 0.0
2016-Jul-24 17:24N 43°32' W 001°30'0 0.0
2016-Jul-24 16:31N 43°32' W 001°30'0 0.0
2016-Jul-24 14:07N 43°32' W 001°30'0 0.0
2016-Jul-24 12:33N 43°32' W 001°30'0 0.0
2016-Jul-24 11:33N 43°32' W 001°30'0 0.0
2016-Jul-24 10:33N 43°32' W 001°30'0 0.0
2016-Jul-24 09:33N 43°32' W 001°30'0 0.0
2016-Jul-24 08:33N 43°32' W 001°30'0 0.0
2016-Jul-24 07:33N 43°32' W 001°30'4 3.8
2016-Jul-24 06:33N 43°34' W 001°34'  
2016-Jul-21 19:26N 49°10' W 004°60'8 5.6
2016-Jul-21 18:06N 49°14' W 004°50'16 5.4
2016-Jul-21 15:10N 49°23' W 004°29'31 7.8
2016-Jul-21 11:14N 49°39' W 003°49'7 7.4
2016-Jul-21 10:17N 49°42' W 003°39'5 6.8
2016-Jul-21 09:31N 49°45' W 003°33'6 5.9
2016-Jul-21 08:33N 49°48' W 003°25'4 4.0
2016-Jul-21 07:33N 49°49' W 003°19'5 5.4
2016-Jul-21 06:33N 49°52' W 003°12'6 6.1
2016-Jul-21 05:33N 49°55' W 003°04'7 7.4
2016-Jul-21 04:33N 49°58' W 002°53'8 8.2
2016-Jul-21 03:33N 50°01' W 002°41'56 8.0
2016-Jul-20 20:32N 50°17' W 001°18'5 5.4
2016-Jul-20 19:31N 50°18' W 001°09'4 4.6
2016-Jul-20 18:33N 50°19' W 001°03'7 6.2
2016-Jul-20 17:30N 50°21' W 000°53'6 5.7
2016-Jul-20 16:29N 50°23' W 000°44'13 6.8
2016-Jul-20 14:33N 50°27' W 000°25'6 6.5
2016-Jul-20 13:33N 50°29' W 000°15'5 5.1
2016-Jul-20 12:32N 50°31' W 000°07'5 5.5
2016-Jul-20 11:33N 50°32' E 000°01'5 4.5
2016-Jul-20 10:32N 50°34' E 000°08'5 5.0
2016-Jul-20 09:33N 50°36' E 000°15'4 4.4
2016-Jul-20 08:33N 50°37' E 000°22'28 7.0
2016-Jul-20 04:33N 50°51' E 001°00'8 8.0
2016-Jul-20 03:33N 50°56' E 001°10'7 7.2
2016-Jul-20 02:33N 51°00' E 001°19'6 6.0
2016-Jul-20 01:33N 51°04' E 001°26'5 4.9
2016-Jul-20 00:33N 51°07' E 001°32'4 4.3
2016-Jul-19 23:33N 51°10' E 001°37'5 5.4
2016-Jul-19 22:33N 51°13' E 001°44'7 7.3
2016-Jul-19 21:33N 51°20' E 001°49'9 9.2
2016-Jul-19 20:33N 51°29' E 001°54'9 9.5
2016-Jul-19 19:33N 51°37' E 001°60'9 9.2
2016-Jul-19 18:33N 51°46' E 002°06'8 7.9
2016-Jul-19 17:33N 51°53' E 002°10'7 6.7
2016-Jul-19 16:27N 52°01' E 002°12'5 6.1
2016-Jul-19 15:33N 52°06' E 002°13'7 6.1
2016-Jul-19 14:25N 52°13' E 002°14'5 5.5
2016-Jul-19 13:32N 52°18' E 002°15'7 6.1
2016-Jul-19 12:27N 52°24' E 002°17'7 7.0
2016-Jul-19 11:23N 52°32' E 002°18'11 8.3
2016-Jul-19 10:07N 52°42' E 002°20'6 8.9
2016-Jul-19 09:25N 52°48' E 002°21'8 9.1
2016-Jul-19 08:33N 52°56' E 002°22'9 8.9
2016-Jul-19 07:32N 53°05' E 002°19'26 8.9
2016-Jul-19 04:33N 53°26' E 001°51'8 7.9
2016-Jul-19 03:33N 53°32' E 001°43'8 7.6
2016-Jul-19 02:33N 53°38' E 001°35'7 7.0
2016-Jul-19 01:33N 53°43' E 001°27'48 6.7
2016-Jul-18 18:22N 54°20' E 000°34'6 7.8
2016-Jul-18 17:33N 54°25' E 000°27'8 8.4
2016-Jul-18 16:33N 54°31' E 000°18'9 8.5
2016-Jul-18 15:33N 54°38' E 000°09'9 8.7
2016-Jul-18 14:33N 54°45' W 000°01'33 8.1
2016-Jul-18 10:32N 55°09' W 000°38'7 7.2
2016-Jul-18 09:33N 55°15' W 000°45'7 7.1
2016-Jul-18 08:32N 55°21' W 000°53'38 7.4
2016-Jul-18 03:23N 55°48' W 001°41'9 8.9
2016-Jul-18 02:25N 55°53' W 001°53'7 8.7
2016-Jul-18 01:33N 55°57' W 002°04'9 8.6
2016-Jul-18 00:33N 56°01' W 002°17'8 8.3
2016-Jul-17 23:33N 56°04' W 002°31'8 7.8
2016-Jul-17 22:33N 56°06' W 002°45'8 7.8
2016-Jul-17 21:33N 56°04' W 002°58'11 9.4
2016-Jul-17 20:25N 56°02' W 003°17'  

Dump ship's entire track history